WEATHER DATA

YESTERDAY
Time Temp. Dewp. Hum. Wind dir Wind speed Wind gust Bar. 1h Prec. 24h Prec.
00:03 13 2.3 48 204 3.9 5.3 1001.5 0.0000 0.0000
00:13 12.9 2.5 49 259 4.4 6.9 1001.2 0.0000 0.0000
00:23 13 3.1 51 237 3.9 8.1 1001.1 0.0000 0.0000
00:43 13 3.1 51 218 3.6 7.8 1001.4 0.0000 0.0000
00:53 13 3.1 51 260 3.6 6.7 1001.3 0.0000 0.0000
01:04 13 3.1 51 244 3.3 6.9 1001.1 0.0000 0.0000
01:14 13 3.4 52 252 3.3 7.5 1001.1 0.0000 0.0000
01:24 12.9 3.6 53 236 3.6 7.8 1001.2 0.0000 0.0000
01:33 12.8 3.5 53 239 3.3 7.2 1001 0.0000 0.0000
01:44 12.8 3.7 54 246 3.6 7.5 1000.8 0.0000 0.0000
01:54 12.8 3.7 54 214 3.1 6.9 1000.9 0.0000 0.0000
02:04 12.9 3.8 54 255 3.3 7.5 1000.9 0.0000 0.0000
02:14 12.9 3.8 54 230 3.1 6.7 1000.8 0.0000 0.0000
02:24 13 3.9 54 241 3.3 6.4 1000.9 0.0000 0.0000
02:34 12.9 4.1 55 254 3.3 7.2 1000.8 0.0000 0.0000
02:44 12.7 3.9 55 267 3.6 7.5 1000.6 0.0000 0.0000
02:55 12.7 3.9 55 222 3.1 7.2 1000.4 0.0000 0.0000
03:04 12.8 4 55 218 3.1 6.1 1000.3 0.0000 0.0000
03:14 12.9 3.8 54 255 3.6 6.1 1000.4 0.0000 0.0000
03:25 12.9 3.8 54 244 3.1 6.9 1000.3 0.0000 0.0000
03:35 12.9 3.8 54 233 3.6 7.2 1000.1 0.0000 0.0000
03:45 13 4.2 55 239 3.6 6.9 1000.1 0.0000 0.0000
03:54 12.9 4.1 55 251 3.6 6.9 999.8 0.0000 0.0000
04:05 12.9 4.3 56 227 3.3 6.1 999.8 0.0000 0.0000
04:15 12.9 4.1 55 264 3.9 7.2 999.8 0.0000 0.0000
04:25 13.1 4.3 55 234 3.1 7.2 999.5 0.0000 0.0000
04:35 13.2 4.1 54 217 3.3 6.9 999.4 0.0000 0.0000
04:45 13.3 4.2 54 223 3.9 7.8 999.2 0.0000 0.0000
04:55 13.3 4.2 54 221 3.3 7.5 999.6 0.0000 0.0000
05:05 13.4 4.3 54 218 3.6 8.1 999.4 0.0000 0.0000
05:16 13.5 4.1 53 238 3.1 7.2 999.5 0.0000 0.0000
05:25 13.5 4.1 53 217 3.3 6.4 999.3 0.0000 0.0000
05:35 13.5 4.1 53 225 3.3 8.9 998.7 0.0000 0.0000
05:46 13.5 4.1 53 214 3.6 8.1 998.9 0.0000 0.0000
05:56 13.6 3.9 52 214 3.3 6.7 998.9 0.0000 0.0000
06:06 13.5 3.8 52 213 3.6 7.8 999 0.0000 0.0000
06:17 13.5 3.8 52 235 3.6 7.8 999.2 0.0000 0.0000
06:27 13.5 3.8 52 234 3.3 6.4 999.3 0.0000 0.0000
06:38 13.6 3.7 51 224 2.8 7.2 999.1 0.0000 0.0000
06:47 13.7 3.5 50 220 3.3 7.8 999.1 0.0000 0.0000
06:57 13.8 3.6 50 221 3.6 6.9 999.2 0.0000 0.0000
07:08 14 3.5 49 212 3.9 6.9 999.2 0.0000 0.0000
07:18 14 3.5 49 212 3.6 7.2 999 0.0000 0.0000
07:28 14 3.8 50 208 3.3 4.4 998.7 0.0000 0.0000
07:37 13.9 3.7 50 212 3.3 6.7 998.8 0.0000 0.0000
07:48 13.7 3.8 51 217 3.1 6.1 998.5 0.0000 0.0000
07:58 13.8 3.6 50 210 3.3 3.6 998.6 0.0000 0.0000
08:08 13.8 3.6 50 217 3.3 7.5 998.4 0.0000 0.0000
08:18 13.7 3.5 50 225 3.1 5.6 998.5 0.0000 0.0000
08:28 13.7 3.8 51 237 3.1 6.4 998.1 0.0000 0.0000
08:38 13.7 3.8 51 227 3.1 6.7 998.1 0.0000 0.0000
08:48 13.6 3.7 51 225 3.3 8.1 997.9 0.0000 0.0000
08:59 13.7 3.5 50 227 3.3 7.8 997.5 0.0000 0.0000
09:08 13.6 3.4 50 230 3.1 6.7 997.4 0.0000 0.0000
09:18 13.7 3.5 50 213 2.8 5.6 997.5 0.0000 0.0000
09:29 13.8 3.3 49 220 3.6 7.8 997.5 0.0000 0.0000
09:39 13.8 3.3 49 231 3.9 7.8 997.1 0.0000 0.0000
09:49 13.8 3.3 49 215 2.8 5.3 996.8 0.0000 0.0000
09:58 13.8 3.3 49 217 3.3 7.5 997 0.0000 0.0000
10:09 13.9 3.4 49 208 3.1 5.8 996.7 0.0000 0.0000
10:19 13.9 3.4 49 214 3.1 7.2 997 0.0000 0.0000
10:29 13.9 3.7 50 215 3.1 6.1 996.2 0.0000 0.0000
10:39 13.9 3.7 50 222 2.5 6.9 996.2 0.0000 0.0000
10:49 14 3.8 50 208 2.5 6.4 996.2 0.0000 0.0000
10:59 14.1 4.1 51 240 2.2 7.2 995.8 0.0000 0.0000
11:09 14.2 4.2 51 284 2.8 7.2 995.5 0.0000 0.0000
11:20 14.2 4.2 51 220 2.5 6.7 995.4 0.0000 0.0000
11:30 14.2 4.2 51 221 2.8 6.4 995.5 0.0000 0.0000
11:39 14.2 4.2 51 210 2.5 6.4 995.5 0.0000 0.0000
11:50 14.2 3.9 50 222 2.5 6.1 995.2 0.0000 0.0000
12:00 14.2 3.9 50 238 3.1 7.2 994.8 0.0000 0.0000
12:09 14.3 3.7 49 225 3.1 6.4 994.4 0.0000 0.0000
12:19 14.5 3.9 49 225 2.8 6.1 994.1 0.0000 0.0000
12:30 14.5 3.9 49 217 3.1 6.7 993.9 0.0000 0.0000
12:40 14.5 4.2 50 215 2.8 6.1 993.6 0.0000 0.0000
12:50 14.4 4.1 50 211 2.8 5.6 993.4 0.0000 0.0000
13:00 14.3 4.3 51 208 2.8 4.7 993.1 0.0000 0.0000
13:10 14.3 4.3 51 211 2.5 5.8 993.2 0.0000 0.0000
13:20 14.1 5.5 56 209 3.3 7.2 993.2 0.0000 0.0000
13:30 13.5 6.4 62 213 2.8 6.7 992.8 0.1400 0.1000
13:41 12.9 6.5 65 226 2.5 6.7 992.2 0.2800 0.3000
13:50 12.5 6.5 67 225 2.8 6.4 992.3 0.2800 0.3000
14:00 12.3 6.6 68 261 3.1 6.7 992.3 0.2800 0.3000
14:11 12.8 7.3 69 279 2.5 7.5 992.4 0.2800 0.3000
14:21 12.8 7.3 69 229 1.9 6.9 992.5 0.2800 0.3000
14:30 13.2 7.2 67 243 2.5 7.2 992.5 0.1400 0.3000
14:40 13.4 7.4 67 291 3.1 7.5 992.9 0.0000 0.3000
14:51 13 7 67 312 4.2 8.3 993.1 0.0000 0.3000
15:01 12.5 7.2 70 298 3.6 7.2 993.4 0.1400 0.4000
15:09 12.1 8.2 77 297 3.3 8.6 993.7 0.4200 0.7000
15:18 11.5 7.6 77 358 2.8 7.5 994 0.9820 1.3000
15:28 11 7.7 80 337 3.6 7.8 994 1.5440 1.8000
15:40 10.6 7.8 83 30 3.1 7.2 994.3 2.1050 2.4000
15:51 10.4 8 85 58 2.2 5.6 994.3 2.8070 3.1000
16:01 10.3 8.1 86 72 2.5 4.2 994.2 3.2290 3.6000
16:11 10.1 8 87 204 2.5 4.2 994.7 3.0890 3.8000
16:20 9.9 7.8 87 2.8 4.7 994.9 2.6670 3.9000
16:31 9.8 7.7 87 174 2.5 4.2 995.1 2.2450 4.1000
16:41 9.6 7.5 87 90 3.1 4.2 995.2 1.6840 4.1000
16:51 9.3 7.1 86 74 1.9 3.6 995.5 0.9820 4.1000
17:01 9 6.8 86 74 1.4 2.8 995.7 0.5600 4.2000
17:11 8.8 6.6 86 220 2.2 4.2 995.9 0.4200 4.2000
17:18 8.7 6.3 85 136 2.8 7.5 996.1 0.2800 4.2000
17:28 8.5 6.1 85 104 2.2 7.8 996.5 0.1400 4.2000
17:34 8.4 6 85 322 1.9 6.4 996.7 0.1400 4.2000
17:44 8.3 5.8 84 295 3.1 9.7 997 0.1400 4.2000
17:54 8.1 5.4 83 305 3.9 8.1 997.2 0.0000 4.2000
18:05 8.1 5.2 82 290 3.3 8.6 997.2 0.0000 4.2000
18:14 8.1 5.2 82 301 5 8.3 997.3 0.0000 4.2000
18:24 8.1 5.2 82 303 5 8.6 997.3 0.0000 4.2000
18:35 8 4.9 81 305 5 6.7 997.5 0.0000 4.2000
18:45 8 4.9 81 309 5.3 6.9 997.6 0.0000 4.2000
18:55 8 4.8 80 309 5.3 7.5 997.9 0.0000 4.2000
19:04 8.1 4.5 78 315 5.8 8.9 997.8 0.0000 4.2000
19:15 8.3 4.3 76 309 5 6.9 998 0.0000 4.2000
19:25 8.4 4.2 75 308 4.7 6.7 998.1 0.0000 4.2000
19:35 8.5 3.9 73 307 4.7 6.7 998.2 0.0000 4.2000
19:45 8.6 4 73 297 3.9 6.4 998.6 0.0000 4.2000
19:55 8.6 3.8 72 299 4.2 6.4 998.8 0.0000 4.2000
20:05 8.7 3.7 71 300 3.9 6.9 998.8 0.0000 4.2000
20:15 8.9 3.7 70 295 3.9 5.8 999.1 0.0000 4.2000
20:26 8.9 3.7 70 293 3.6 6.1 999.1 0.0000 4.2000
20:36 8.9 3.5 69 295 3.6 5.8 999.4 0.0000 4.2000
20:46 8.9 3.5 69 290 3.3 5.8 999.6 0.0000 4.2000
20:56 8.9 3.3 68 289 3.3 5.8 999.6 0.0000 4.2000
21:06 9 3.4 68 300 3.9 6.7 999.7 0.0000 4.2000
21:16 9 3.4 68 300 3.9 7.2 1000.1 0.0000 4.2000
21:26 9.1 3.5 68 302 4.2 6.4 1000.1 0.0000 4.2000
21:36 9.2 3.6 68 307 4.4 6.9 1000.3 0.0000 4.2000
21:49 9 3.6 69 293 3.6 6.7 1000.6 0.0000 4.2000
21:58 8.9 3.5 69 293 3.6 5.8 1000.9 0.0000 4.2000
22:08 8.7 3.5 70 299 4.2 6.7 1001.4 0.0000 4.2000
22:18 8.5 3.1 69 295 3.9 6.4 1001.6 0.0000 4.2000
22:29 8.3 3 69 295 3.3 5.8 1001.7 0.0000 4.2000
22:39 8.1 3 70 298 3.9 6.4 1002 0.0000 4.2000
22:48 8 2.9 70 296 3.3 5.6 1002.2 0.0000 4.2000
22:59 7.8 2.9 71 297 3.1 5.6 1002.4 0.0000 4.2000
23:09 7.7 3 72 292 2.5 6.1 1002.8 0.0000 4.2000
23:19 7.4 3.1 74 295 3.1 6.1 1003.1 0.0000 4.2000
23:29 7 3.1 76 295 2.8 6.1 1003.3 0.0000 4.2000
23:39 6.8 2.9 76 299 2.8 5.6 1003.3 0.0000 4.2000
23:49 6.7 2.4 74 303 3.1 5.6 1003.5 0.0000 4.2000

DAY STATISTIC

2021-01-24
TEMPERATURE
AVERAGE
11.7
HIGH
14.5
12:19
LOW
6.7
23:49
PRESSURE
AVERAGE
997.9
HIGH
1003.5
23:49
LOW
992.2
13:41
DEWPOINT
AVERAGE
4.4
HIGH
8.2
15:09
LOW
2.3
00:03
HUMIDITY
AVERAGE
62
HIGH
87
16:11
LOW
48
00:03
WIND SPEED
AVERAGE
3.3
HIGH
5.8
19:04
WIND GUST
AVERAGE
6.7
HIGH
9.7
17:44
WIND DIRECTION
PREVAILING
SW
52.1%
N
0.7
NE
1.4
E
3.5
SE
0.7
S
2.1
SW
52.1
W
12.0
NW
26.8
PRECIPITATION
RAIN HOUR
3.2
RAIN DAY
4.2
TEMPERATURE (°C)
LOW
6.7
HIGH
14.5
AVERAGE
11.7
PRESSURE (hpa)
LOW
992.2
HIGH
1003.5
AVERAGE
997.9
DEVICE